NEW HOGAN LAKE (NHG)

Elevation: 554' · CALAVERAS R basin · Operator: US Army Corps of Engineers

Provisional data, subject to change.
Query executed Wednesday at 11:48:36   clock

Select a sensor type for a plot of data.
Note: Reservoir Flows are daily averages.

Earlier

Date RES ELE    STORAGE    RES CHG    TOC STO    ABV TOC    OUTFLOW    INFLOW    FNF    PPT INC    TEMP MN    TEMP MX   
 FEET   AF   AF   AF   AF   CFS   CFS   CFS   INCHES   DEG F   DEG F  
07/28/2014 627.36 64149 -431 317100 -252951 207 9 9 0.00 22 38
07/29/2014 627.13 63753 -396 317100 -253347 198 17 17 0.00 24 38
07/30/2014 626.93 63410 -343 317100 -253690 165 13 13 0.00 23 39
07/31/2014 626.73 63068 -342 317100 -254032 159 9 9 0.00 21 40
08/01/2014 626.49 62659 -409 317100 -254441 189 5 5 0.00 21 41
08/02/2014 626.25 62252 -407 317100 -254848 202 19 19 0.00 19 38
08/03/2014 626.00 61829 -423 317100 -255271 200 -1 -- 0.00 17 33
08/04/2014 625.79 61475 -354 317100 -255625 189 22 -- 0.00 17 30
08/05/2014 625.57 61106 -369 317100 -255994 175 4 4 0.00 19 30
08/06/2014 625.36 60755 -351 317100 -256345 180 18 18 0.00 18 33
08/07/2014 625.12 60355 -400 317100 -256745 192 9 9 0.00 20 35
08/08/2014 624.88 59957 -398 317100 -257143 197 14 14 0.00 19 36
08/09/2014 624.65 59577 -380 317100 -257523 186 13 13 0.00 17 35
08/10/2014 624.43 59214 -363 317100 -257886 175 6 6 0.00 13 32
08/11/2014 624.22 58869 -345 317100 -258231 171 16 16 0.00 18 37
08/12/2014 623.99 58493 -376 317100 -258607 176 4 4 0.00 16 34
08/13/2014 623.78 58151 -342 317100 -258949 179 23 23 0.00 14 32
08/14/2014 623.57 57810 -341 317100 -259290 167 13 13 0.00 19 34
08/15/2014 623.36 57470 -340 317100 -259630 165 12 12 0.00 17 36
08/16/2014 623.13 57099 -371 317100 -260001 175 7 7 0.00 19 36
08/17/2014 622.91 56746 -353 317100 -260354 175 15 15 0.00 17 35
08/18/2014 622.68 56378 -368 317100 -260722 177 9 9 0.00 15 35
08/19/2014 622.47 56043 -335 317100 -261057 162 8 8 0.00 15 31
08/20/2014 622.27 55725 -318 317100 -261375 141 -5 -5 0.00 15 29
08/21/2014 622.09 55440 -285 317100 -261660 140 11 11 0.00 15 33
08/22/2014 621.86 55077 -363 317100 -262023 163 -3 -3 0.00 17 34
08/23/2014 621.62 54700 -377 317100 -262400 186 12 12 0.00 15 33
08/24/2014 621.36 54293 -407 317100 -262807 198 9 -- 0.00 15 32
08/25/2014 621.12 53919 -374 317100 -263181 179 4 -- 0.00 14 28
08/26/2014 620.91 53593 -326 317100 -263507 164 14 -- 0.00 14 32
08/27/2014 -- -- -- -- -- -- -- -- -- -- --

Later | Latest

Warning! This data is preliminary and subject to revision.

Download Data Now Download Data Now | Show NHG Map | Plot NHG Data | 1 Month NHG Data | Real-Time NHG Data | NHG Info